sensor_id;sensor_type;location;lat;lon;timestamp;temperature;humidity
43884;DHT22;29544;52.018;5.810;2022-09-28T00:00:08;18.80;58.40
43884;DHT22;29544;52.018;5.810;2022-09-28T00:02:33;18.80;58.40
43884;DHT22;29544;52.018;5.810;2022-09-28T00:05:00;18.80;58.40
43884;DHT22;29544;52.018;5.810;2022-09-28T00:07:27;18.70;58.40
43884;DHT22;29544;52.018;5.810;2022-09-28T00:09:53;18.70;58.40
43884;DHT22;29544;52.018;5.810;2022-09-28T00:12:19;18.70;58.40
43884;DHT22;29544;52.018;5.810;2022-09-28T00:14:46;18.70;58.50
43884;DHT22;29544;52.018;5.810;2022-09-28T00:17:11;18.70;58.50
43884;DHT22;29544;52.018;5.810;2022-09-28T00:19:37;18.70;58.50
43884;DHT22;29544;52.018;5.810;2022-09-28T00:22:07;18.60;58.50
43884;DHT22;29544;52.018;5.810;2022-09-28T00:24:32;18.60;58.50
43884;DHT22;29544;52.018;5.810;2022-09-28T00:26:58;18.60;58.50
43884;DHT22;29544;52.018;5.810;2022-09-28T00:29:33;18.60;58.50
43884;DHT22;29544;52.018;5.810;2022-09-28T00:32:02;18.60;58.50
43884;DHT22;29544;52.018;5.810;2022-09-28T00:34:29;18.50;58.60
43884;DHT22;29544;52.018;5.810;2022-09-28T00:36:56;18.50;58.60
43884;DHT22;29544;52.018;5.810;2022-09-28T00:39:22;18.50;58.60
43884;DHT22;29544;52.018;5.810;2022-09-28T00:41:48;18.50;58.70
43884;DHT22;29544;52.018;5.810;2022-09-28T00:49:51;18.50;58.70
43884;DHT22;29544;52.018;5.810;2022-09-28T00:54:59;18.50;58.70
43884;DHT22;29544;52.018;5.810;2022-09-28T00:57:26;18.40;58.70
43884;DHT22;29544;52.018;5.810;2022-09-28T00:59:52;18.40;58.80
43884;DHT22;29544;52.018;5.810;2022-09-28T01:02:18;18.40;58.80
43884;DHT22;29544;52.018;5.810;2022-09-28T01:04:45;18.30;58.70
43884;DHT22;29544;52.018;5.810;2022-09-28T01:07:11;18.30;58.80
43884;DHT22;29544;52.018;5.810;2022-09-28T01:09:38;18.30;59.40
43884;DHT22;29544;52.018;5.810;2022-09-28T01:12:05;18.30;58.80
43884;DHT22;29544;52.018;5.810;2022-09-28T01:14:31;18.30;58.80
43884;DHT22;29544;52.018;5.810;2022-09-28T01:17:09;18.30;58.90
43884;DHT22;29544;52.018;5.810;2022-09-28T01:19:58;18.30;59.50
43884;DHT22;29544;52.018;5.810;2022-09-28T01:25:32;18.30;58.90
43884;DHT22;29544;52.018;5.810;2022-09-28T01:27:56;18.30;58.90
43884;DHT22;29544;52.018;5.810;2022-09-28T01:30:24;18.20;58.90
43884;DHT22;29544;52.018;5.810;2022-09-28T01:32:54;18.20;58.90
43884;DHT22;29544;52.018;5.810;2022-09-28T01:35:30;18.20;59.00
43884;DHT22;29544;52.018;5.810;2022-09-28T01:38:02;18.20;59.00
43884;DHT22;29544;52.018;5.810;2022-09-28T01:40:31;18.20;59.00
43884;DHT22;29544;52.018;5.810;2022-09-28T01:43:17;18.10;58.90
43884;DHT22;29544;52.018;5.810;2022-09-28T01:45:48;18.10;59.00
43884;DHT22;29544;52.018;5.810;2022-09-28T01:48:23;18.10;59.00
43884;DHT22;29544;52.018;5.810;2022-09-28T01:50:54;18.10;59.00
43884;DHT22;29544;52.018;5.810;2022-09-28T01:53:27;18.20;59.00
43884;DHT22;29544;52.018;5.810;2022-09-28T01:55:59;18.10;59.00
43884;DHT22;29544;52.018;5.810;2022-09-28T01:58:37;18.10;59.00
43884;DHT22;29544;52.018;5.810;2022-09-28T02:01:08;18.10;59.00
43884;DHT22;29544;52.018;5.810;2022-09-28T02:03:51;18.10;59.00
43884;DHT22;29544;52.018;5.810;2022-09-28T02:06:31;18.00;59.00
43884;DHT22;29544;52.018;5.810;2022-09-28T02:09:03;18.00;59.00
43884;DHT22;29544;52.018;5.810;2022-09-28T02:11:32;18.00;59.00
43884;DHT22;29544;52.018;5.810;2022-09-28T02:14:09;18.00;59.10
43884;DHT22;29544;52.018;5.810;2022-09-28T02:19:18;18.00;59.10
43884;DHT22;29544;52.018;5.810;2022-09-28T02:24:53;17.90;59.00
43884;DHT22;29544;52.018;5.810;2022-09-28T02:29:56;17.90;59.10
43884;DHT22;29544;52.018;5.810;2022-09-28T02:32:23;18.00;59.20
43884;DHT22;29544;52.018;5.810;2022-09-28T02:34:50;17.90;59.10
43884;DHT22;29544;52.018;5.810;2022-09-28T02:37:15;17.90;59.10
43884;DHT22;29544;52.018;5.810;2022-09-28T02:39:41;17.90;59.10
43884;DHT22;29544;52.018;5.810;2022-09-28T02:45:09;17.80;59.10
43884;DHT22;29544;52.018;5.810;2022-09-28T02:50:40;17.80;59.10
43884;DHT22;29544;52.018;5.810;2022-09-28T02:56:01;17.80;59.10
43884;DHT22;29544;52.018;5.810;2022-09-28T03:03:53;17.70;59.20
43884;DHT22;29544;52.018;5.810;2022-09-28T03:08:59;17.80;59.20
43884;DHT22;29544;52.018;5.810;2022-09-28T03:11:39;17.70;59.10
43884;DHT22;29544;52.018;5.810;2022-09-28T03:14:06;17.70;59.10
43884;DHT22;29544;52.018;5.810;2022-09-28T03:16:32;17.70;59.10
43884;DHT22;29544;52.018;5.810;2022-09-28T03:18:57;17.70;59.20
43884;DHT22;29544;52.018;5.810;2022-09-28T03:21:23;17.70;59.20
43884;DHT22;29544;52.018;5.810;2022-09-28T03:23:48;17.60;59.10
43884;DHT22;29544;52.018;5.810;2022-09-28T03:26:14;17.70;59.20
43884;DHT22;29544;52.018;5.810;2022-09-28T03:28:41;17.70;59.20
43884;DHT22;29544;52.018;5.810;2022-09-28T03:31:07;17.60;59.20
43884;DHT22;29544;52.018;5.810;2022-09-28T03:33:33;17.60;59.20
43884;DHT22;29544;52.018;5.810;2022-09-28T03:35:58;17.70;59.30
43884;DHT22;29544;52.018;5.810;2022-09-28T03:38:24;17.60;59.20
43884;DHT22;29544;52.018;5.810;2022-09-28T03:43:19;17.60;59.20
43884;DHT22;29544;52.018;5.810;2022-09-28T03:45:56;17.60;59.20
43884;DHT22;29544;52.018;5.810;2022-09-28T03:48:23;17.50;59.20
43884;DHT22;29544;52.018;5.810;2022-09-28T03:50:52;17.60;59.30
43884;DHT22;29544;52.018;5.810;2022-09-28T03:53:17;17.50;59.20
43884;DHT22;29544;52.018;5.810;2022-09-28T03:55:43;17.50;59.30
43884;DHT22;29544;52.018;5.810;2022-09-28T03:58:09;17.60;59.30
43884;DHT22;29544;52.018;5.810;2022-09-28T04:00:37;17.50;59.30
43884;DHT22;29544;52.018;5.810;2022-09-28T04:03:02;17.50;59.30
43884;DHT22;29544;52.018;5.810;2022-09-28T04:05:28;17.50;59.30
43884;DHT22;29544;52.018;5.810;2022-09-28T04:07:54;17.50;59.30
43884;DHT22;29544;52.018;5.810;2022-09-28T04:10:23;17.50;59.40
43884;DHT22;29544;52.018;5.810;2022-09-28T04:12:52;17.50;59.30
43884;DHT22;29544;52.018;5.810;2022-09-28T04:15:18;17.50;59.30
43884;DHT22;29544;52.018;5.810;2022-09-28T04:17:43;17.50;59.40
43884;DHT22;29544;52.018;5.810;2022-09-28T04:20:09;17.50;59.40
43884;DHT22;29544;52.018;5.810;2022-09-28T04:22:34;17.50;59.40
43884;DHT22;29544;52.018;5.810;2022-09-28T04:25:03;17.40;59.40
43884;DHT22;29544;52.018;5.810;2022-09-28T04:27:28;17.40;59.40
43884;DHT22;29544;52.018;5.810;2022-09-28T04:30:12;17.40;59.40
43884;DHT22;29544;52.018;5.810;2022-09-28T04:32:38;17.40;59.40
43884;DHT22;29544;52.018;5.810;2022-09-28T04:35:04;17.40;59.40
43884;DHT22;29544;52.018;5.810;2022-09-28T04:37:29;17.40;59.40
43884;DHT22;29544;52.018;5.810;2022-09-28T04:39:55;17.40;59.40
43884;DHT22;29544;52.018;5.810;2022-09-28T04:42:21;17.40;59.40
43884;DHT22;29544;52.018;5.810;2022-09-28T04:44:47;17.40;59.50
43884;DHT22;29544;52.018;5.810;2022-09-28T04:47:12;17.40;59.40
43884;DHT22;29544;52.018;5.810;2022-09-28T04:49:38;17.30;59.40
43884;DHT22;29544;52.018;5.810;2022-09-28T04:52:04;17.40;59.40
43884;DHT22;29544;52.018;5.810;2022-09-28T04:54:30;17.30;59.40
43884;DHT22;29544;52.018;5.810;2022-09-28T04:56:56;17.30;59.40
43884;DHT22;29544;52.018;5.810;2022-09-28T04:59:22;17.30;59.40
43884;DHT22;29544;52.018;5.810;2022-09-28T05:01:48;17.30;59.40
43884;DHT22;29544;52.018;5.810;2022-09-28T05:04:14;17.30;59.40
43884;DHT22;29544;52.018;5.810;2022-09-28T05:06:39;17.30;59.40
43884;DHT22;29544;52.018;5.810;2022-09-28T05:09:06;17.30;59.40
43884;DHT22;29544;52.018;5.810;2022-09-28T05:11:31;17.30;59.40
43884;DHT22;29544;52.018;5.810;2022-09-28T05:13:57;17.30;59.40
43884;DHT22;29544;52.018;5.810;2022-09-28T05:16:22;17.30;59.40
43884;DHT22;29544;52.018;5.810;2022-09-28T05:18:54;17.30;60.00
43884;DHT22;29544;52.018;5.810;2022-09-28T05:21:19;17.20;59.40
43884;DHT22;29544;52.018;5.810;2022-09-28T05:23:46;17.30;59.40
43884;DHT22;29544;52.018;5.810;2022-09-28T05:26:12;17.20;59.40
43884;DHT22;29544;52.018;5.810;2022-09-28T05:28:37;17.20;59.40
43884;DHT22;29544;52.018;5.810;2022-09-28T05:31:03;17.20;59.40
43884;DHT22;29544;52.018;5.810;2022-09-28T05:33:30;17.20;59.40
43884;DHT22;29544;52.018;5.810;2022-09-28T05:35:57;17.20;59.40
43884;DHT22;29544;52.018;5.810;2022-09-28T05:38:23;17.20;59.40
43884;DHT22;29544;52.018;5.810;2022-09-28T05:40:49;17.20;59.40
43884;DHT22;29544;52.018;5.810;2022-09-28T05:43:14;17.20;59.40
43884;DHT22;29544;52.018;5.810;2022-09-28T05:45:40;17.20;59.40
43884;DHT22;29544;52.018;5.810;2022-09-28T05:48:05;17.20;59.40
43884;DHT22;29544;52.018;5.810;2022-09-28T05:50:31;17.10;59.40
43884;DHT22;29544;52.018;5.810;2022-09-28T05:52:58;17.20;59.40
43884;DHT22;29544;52.018;5.810;2022-09-28T05:55:24;17.20;59.40
43884;DHT22;29544;52.018;5.810;2022-09-28T05:57:50;17.10;59.40
43884;DHT22;29544;52.018;5.810;2022-09-28T06:00:15;17.10;59.40
43884;DHT22;29544;52.018;5.810;2022-09-28T06:02:41;17.10;59.40
43884;DHT22;29544;52.018;5.810;2022-09-28T06:05:06;17.10;59.40
43884;DHT22;29544;52.018;5.810;2022-09-28T06:07:32;17.10;59.30
43884;DHT22;29544;52.018;5.810;2022-09-28T06:09:58;17.10;59.40
43884;DHT22;29544;52.018;5.810;2022-09-28T06:12:24;17.10;59.40
43884;DHT22;29544;52.018;5.810;2022-09-28T06:14:50;17.10;59.40
43884;DHT22;29544;52.018;5.810;2022-09-28T06:17:15;17.10;59.40
43884;DHT22;29544;52.018;5.810;2022-09-28T06:19:41;17.00;59.40
43884;DHT22;29544;52.018;5.810;2022-09-28T06:22:06;17.10;59.40
43884;DHT22;29544;52.018;5.810;2022-09-28T06:24:33;17.00;59.30
43884;DHT22;29544;52.018;5.810;2022-09-28T06:26:58;17.10;59.30
43884;DHT22;29544;52.018;5.810;2022-09-28T06:29:24;17.00;59.40
43884;DHT22;29544;52.018;5.810;2022-09-28T06:31:49;17.00;59.40
43884;DHT22;29544;52.018;5.810;2022-09-28T06:34:15;17.00;59.40
43884;DHT22;29544;52.018;5.810;2022-09-28T06:36:41;17.00;59.40
43884;DHT22;29544;52.018;5.810;2022-09-28T06:39:07;17.00;59.30
43884;DHT22;29544;52.018;5.810;2022-09-28T06:41:32;17.00;59.30
43884;DHT22;29544;52.018;5.810;2022-09-28T06:43:58;16.90;59.30
43884;DHT22;29544;52.018;5.810;2022-09-28T06:46:23;16.90;59.30
43884;DHT22;29544;52.018;5.810;2022-09-28T06:48:50;16.90;59.30
43884;DHT22;29544;52.018;5.810;2022-09-28T06:51:15;16.90;59.90
43884;DHT22;29544;52.018;5.810;2022-09-28T06:53:41;16.90;59.30
43884;DHT22;29544;52.018;5.810;2022-09-28T06:56:10;16.90;59.40
43884;DHT22;29544;52.018;5.810;2022-09-28T06:58:36;16.90;59.30
43884;DHT22;29544;52.018;5.810;2022-09-28T07:01:01;16.90;59.40
43884;DHT22;29544;52.018;5.810;2022-09-28T07:03:27;16.90;59.40
43884;DHT22;29544;52.018;5.810;2022-09-28T07:05:54;16.90;59.40
43884;DHT22;29544;52.018;5.810;2022-09-28T07:08:25;16.90;59.40
43884;DHT22;29544;52.018;5.810;2022-09-28T07:10:53;16.80;59.30
43884;DHT22;29544;52.018;5.810;2022-09-28T07:13:21;16.80;59.40
43884;DHT22;29544;52.018;5.810;2022-09-28T07:15:47;16.90;59.40
43884;DHT22;29544;52.018;5.810;2022-09-28T07:18:13;16.80;59.40
43884;DHT22;29544;52.018;5.810;2022-09-28T07:20:38;16.90;59.50
43884;DHT22;29544;52.018;5.810;2022-09-28T07:23:05;16.80;59.60
43884;DHT22;29544;52.018;5.810;2022-09-28T07:25:32;16.80;59.50
43884;DHT22;29544;52.018;5.810;2022-09-28T07:28:02;16.80;59.60
43884;DHT22;29544;52.018;5.810;2022-09-28T07:30:31;16.80;59.60
43884;DHT22;29544;52.018;5.810;2022-09-28T07:32:58;16.90;59.60
43884;DHT22;29544;52.018;5.810;2022-09-28T07:35:24;16.90;59.70
43884;DHT22;29544;52.018;5.810;2022-09-28T07:38:05;16.80;59.70
43884;DHT22;29544;52.018;5.810;2022-09-28T07:40:32;16.80;59.70
43884;DHT22;29544;52.018;5.810;2022-09-28T07:43:17;16.80;59.70
43884;DHT22;29544;52.018;5.810;2022-09-28T07:45:46;16.80;59.70
43884;DHT22;29544;52.018;5.810;2022-09-28T07:48:12;16.80;59.80
43884;DHT22;29544;52.018;5.810;2022-09-28T07:50:41;16.80;59.80
43884;DHT22;29544;52.018;5.810;2022-09-28T07:53:06;16.80;59.80
43884;DHT22;29544;52.018;5.810;2022-09-28T07:55:32;16.80;59.80
43884;DHT22;29544;52.018;5.810;2022-09-28T07:57:58;16.80;59.80
43884;DHT22;29544;52.018;5.810;2022-09-28T08:00:26;16.80;59.90
43884;DHT22;29544;52.018;5.810;2022-09-28T08:02:51;16.80;59.90
43884;DHT22;29544;52.018;5.810;2022-09-28T08:05:17;16.80;59.90
43884;DHT22;29544;52.018;5.810;2022-09-28T08:07:43;16.80;59.90
43884;DHT22;29544;52.018;5.810;2022-09-28T08:10:09;16.80;59.90
43884;DHT22;29544;52.018;5.810;2022-09-28T08:12:34;16.80;60.00
43884;DHT22;29544;52.018;5.810;2022-09-28T08:15:00;16.80;60.00
43884;DHT22;29544;52.018;5.810;2022-09-28T08:17:26;16.80;60.00
43884;DHT22;29544;52.018;5.810;2022-09-28T08:19:52;16.80;60.50
43884;DHT22;29544;52.018;5.810;2022-09-28T08:22:36;16.80;61.00
43884;DHT22;29544;52.018;5.810;2022-09-28T08:25:03;16.90;61.10
43884;DHT22;29544;52.018;5.810;2022-09-28T08:27:29;16.90;61.10
43884;DHT22;29544;52.018;5.810;2022-09-28T08:29:55;16.90;61.10
43884;DHT22;29544;52.018;5.810;2022-09-28T08:32:20;16.90;61.10
43884;DHT22;29544;52.018;5.810;2022-09-28T08:34:46;16.90;61.20
43884;DHT22;29544;52.018;5.810;2022-09-28T08:37:11;16.90;61.20
43884;DHT22;29544;52.018;5.810;2022-09-28T08:39:37;16.90;61.20
43884;DHT22;29544;52.018;5.810;2022-09-28T08:44:52;16.90;61.40
43884;DHT22;29544;52.018;5.810;2022-09-28T08:47:28;17.00;61.50
43884;DHT22;29544;52.018;5.810;2022-09-28T08:50:19;17.00;61.50
43884;DHT22;29544;52.018;5.810;2022-09-28T08:52:53;17.00;61.50
43884;DHT22;29544;52.018;5.810;2022-09-28T08:55:33;17.00;61.60
43884;DHT22;29544;52.018;5.810;2022-09-28T08:58:49;17.00;61.60
43884;DHT22;29544;52.018;5.810;2022-09-28T09:00:54;17.00;61.60
43884;DHT22;29544;52.018;5.810;2022-09-28T09:03:26;17.10;61.80
43884;DHT22;29544;52.018;5.810;2022-09-28T09:14:26;17.10;61.70
43884;DHT22;29544;52.018;5.810;2022-09-28T09:20:10;17.10;61.60
43884;DHT22;29544;52.018;5.810;2022-09-28T09:22:46;17.20;61.60
43884;DHT22;29544;52.018;5.810;2022-09-28T09:25:19;17.10;61.60
43884;DHT22;29544;52.018;5.810;2022-09-28T09:30:14;17.20;61.60
43884;DHT22;29544;52.018;5.810;2022-09-28T09:35:23;17.20;61.60
43884;DHT22;29544;52.018;5.810;2022-09-28T09:43:41;17.20;61.50
43884;DHT22;29544;52.018;5.810;2022-09-28T09:54:32;17.30;61.70
43884;DHT22;29544;52.018;5.810;2022-09-28T09:57:12;17.30;61.80
43884;DHT22;29544;52.018;5.810;2022-09-28T09:59:40;17.30;61.70
43884;DHT22;29544;52.018;5.810;2022-09-28T10:02:25;17.30;61.60
43884;DHT22;29544;52.018;5.810;2022-09-28T10:05:39;17.40;61.60
43884;DHT22;29544;52.018;5.810;2022-09-28T10:10:46;17.40;61.60
43884;DHT22;29544;52.018;5.810;2022-09-28T10:13:13;17.40;61.60
43884;DHT22;29544;52.018;5.810;2022-09-28T10:15:40;17.50;61.90
43884;DHT22;29544;52.018;5.810;2022-09-28T10:18:10;17.50;61.90
43884;DHT22;29544;52.018;5.810;2022-09-28T10:20:38;17.40;61.80
43884;DHT22;29544;52.018;5.810;2022-09-28T10:23:08;17.40;61.70
43884;DHT22;29544;52.018;5.810;2022-09-28T10:25:40;17.50;61.70
43884;DHT22;29544;52.018;5.810;2022-09-28T10:28:13;17.50;61.70
43884;DHT22;29544;52.018;5.810;2022-09-28T10:30:42;17.50;62.40
43884;DHT22;29544;52.018;5.810;2022-09-28T10:33:31;17.50;61.70
43884;DHT22;29544;52.018;5.810;2022-09-28T10:36:03;17.50;61.80
43884;DHT22;29544;52.018;5.810;2022-09-28T10:38:30;17.60;61.80
43884;DHT22;29544;52.018;5.810;2022-09-28T10:41:08;17.50;61.80
43884;DHT22;29544;52.018;5.810;2022-09-28T10:43:50;17.60;61.80
43884;DHT22;29544;52.018;5.810;2022-09-28T10:46:31;17.50;61.60
43884;DHT22;29544;52.018;5.810;2022-09-28T10:49:01;17.60;61.50
43884;DHT22;29544;52.018;5.810;2022-09-28T10:51:43;17.60;61.50
43884;DHT22;29544;52.018;5.810;2022-09-28T10:56:42;17.70;61.50
43884;DHT22;29544;52.018;5.810;2022-09-28T11:02:00;17.80;61.60
43884;DHT22;29544;52.018;5.810;2022-09-28T11:04:28;17.80;61.50
43884;DHT22;29544;52.018;5.810;2022-09-28T11:06:55;17.90;61.60
43884;DHT22;29544;52.018;5.810;2022-09-28T11:09:29;17.90;61.60
43884;DHT22;29544;52.018;5.810;2022-09-28T11:12:02;17.90;61.50
43884;DHT22;29544;52.018;5.810;2022-09-28T11:14:35;17.90;61.40
43884;DHT22;29544;52.018;5.810;2022-09-28T11:17:34;17.90;61.40
43884;DHT22;29544;52.018;5.810;2022-09-28T11:20:30;18.00;61.30
43884;DHT22;29544;52.018;5.810;2022-09-28T11:23:20;17.90;61.20
43884;DHT22;29544;52.018;5.810;2022-09-28T11:25:58;18.00;61.20
43884;DHT22;29544;52.018;5.810;2022-09-28T11:28:30;18.00;61.10
43884;DHT22;29544;52.018;5.810;2022-09-28T11:30:57;18.00;61.10
43884;DHT22;29544;52.018;5.810;2022-09-28T11:33:45;17.90;61.00
43884;DHT22;29544;52.018;5.810;2022-09-28T11:44:03;17.90;60.80
43884;DHT22;29544;52.018;5.810;2022-09-28T11:47:00;17.90;60.80
43884;DHT22;29544;52.018;5.810;2022-09-28T11:49:38;17.90;60.80
43884;DHT22;29544;52.018;5.810;2022-09-28T11:52:16;17.90;60.80
43884;DHT22;29544;52.018;5.810;2022-09-28T11:54:44;17.90;60.70
43884;DHT22;29544;52.018;5.810;2022-09-28T11:57:19;17.90;60.70
43884;DHT22;29544;52.018;5.810;2022-09-28T12:00:06;17.90;60.70
43884;DHT22;29544;52.018;5.810;2022-09-28T12:02:35;17.90;60.70
43884;DHT22;29544;52.018;5.810;2022-09-28T12:07:53;18.00;60.70
43884;DHT22;29544;52.018;5.810;2022-09-28T12:10:53;18.00;60.70
43884;DHT22;29544;52.018;5.810;2022-09-28T12:13:42;17.90;60.70
43884;DHT22;29544;52.018;5.810;2022-09-28T12:18:58;18.00;60.90
43884;DHT22;29544;52.018;5.810;2022-09-28T12:21:43;18.10;61.10
43884;DHT22;29544;52.018;5.810;2022-09-28T12:24:46;18.10;61.10
43884;DHT22;29544;52.018;5.810;2022-09-28T12:27:36;18.20;61.30
43884;DHT22;29544;52.018;5.810;2022-09-28T12:30:12;18.10;61.10
43884;DHT22;29544;52.018;5.810;2022-09-28T12:32:45;18.20;61.20
43884;DHT22;29544;52.018;5.810;2022-09-28T12:47:05;18.20;61.20
43884;DHT22;29544;52.018;5.810;2022-09-28T12:49:58;18.20;61.20
43884;DHT22;29544;52.018;5.810;2022-09-28T13:00:50;18.20;61.30
43884;DHT22;29544;52.018;5.810;2022-09-28T13:09:05;18.20;61.30
43884;DHT22;29544;52.018;5.810;2022-09-28T13:11:42;18.20;61.30
43884;DHT22;29544;52.018;5.810;2022-09-28T13:25:26;18.20;61.30
43884;DHT22;29544;52.018;5.810;2022-09-28T13:28:04;18.20;61.20
43884;DHT22;29544;52.018;5.810;2022-09-28T13:30:32;18.20;61.20
43884;DHT22;29544;52.018;5.810;2022-09-28T13:33:02;18.20;61.20
43884;DHT22;29544;52.018;5.810;2022-09-28T13:35:28;18.20;61.20
43884;DHT22;29544;52.018;5.810;2022-09-28T13:47:05;18.20;61.20
43884;DHT22;29544;52.018;5.810;2022-09-28T13:58:04;18.20;61.90
43884;DHT22;29544;52.018;5.810;2022-09-28T14:00:37;18.10;61.20
43884;DHT22;29544;52.018;5.810;2022-09-28T14:03:40;18.20;61.40
43884;DHT22;29544;52.018;5.810;2022-09-28T14:06:31;18.20;61.40
43884;DHT22;29544;52.018;5.810;2022-09-28T14:16:34;18.10;61.40
43884;DHT22;29544;52.018;5.810;2022-09-28T14:19:01;18.10;61.40
43884;DHT22;29544;52.018;5.810;2022-09-28T14:24:30;18.10;61.40
43884;DHT22;29544;52.018;5.810;2022-09-28T14:27:37;18.10;61.40
43884;DHT22;29544;52.018;5.810;2022-09-28T14:32:33;18.10;61.40
43884;DHT22;29544;52.018;5.810;2022-09-28T14:35:05;18.10;61.50
43884;DHT22;29544;52.018;5.810;2022-09-28T14:37:38;18.10;61.40
43884;DHT22;29544;52.018;5.810;2022-09-28T14:40:31;18.10;61.50
43884;DHT22;29544;52.018;5.810;2022-09-28T14:43:27;18.10;61.50
43884;DHT22;29544;52.018;5.810;2022-09-28T14:46:32;18.10;61.50
43884;DHT22;29544;52.018;5.810;2022-09-28T14:49:05;18.10;61.50
43884;DHT22;29544;52.018;5.810;2022-09-28T14:54:20;18.10;61.60
43884;DHT22;29544;52.018;5.810;2022-09-28T14:59:23;18.10;61.70
43884;DHT22;29544;52.018;5.810;2022-09-28T15:01:56;18.10;61.70
43884;DHT22;29544;52.018;5.810;2022-09-28T15:04:27;18.10;61.90
43884;DHT22;29544;52.018;5.810;2022-09-28T15:06:53;18.10;62.10
43884;DHT22;29544;52.018;5.810;2022-09-28T15:09:29;18.10;62.40
43884;DHT22;29544;52.018;5.810;2022-09-28T15:17:25;18.20;62.00
43884;DHT22;29544;52.018;5.810;2022-09-28T15:20:23;18.20;61.90
43884;DHT22;29544;52.018;5.810;2022-09-28T15:22:52;18.10;61.80
43884;DHT22;29544;52.018;5.810;2022-09-28T15:25:23;18.10;61.70
43884;DHT22;29544;52.018;5.810;2022-09-28T15:27:55;18.10;61.70
43884;DHT22;29544;52.018;5.810;2022-09-28T15:30:32;18.10;61.70
43884;DHT22;29544;52.018;5.810;2022-09-28T15:32:59;18.10;61.70
43884;DHT22;29544;52.018;5.810;2022-09-28T15:35:46;18.10;61.60
43884;DHT22;29544;52.018;5.810;2022-09-28T15:38:15;18.10;61.60
43884;DHT22;29544;52.018;5.810;2022-09-28T15:40:42;18.10;61.60
43884;DHT22;29544;52.018;5.810;2022-09-28T15:43:24;18.10;61.50
43884;DHT22;29544;52.018;5.810;2022-09-28T15:46:18;18.10;61.50
43884;DHT22;29544;52.018;5.810;2022-09-28T15:48:54;18.10;61.60
43884;DHT22;29544;52.018;5.810;2022-09-28T15:51:22;18.10;61.50
43884;DHT22;29544;52.018;5.810;2022-09-28T15:54:00;18.10;61.50
43884;DHT22;29544;52.018;5.810;2022-09-28T15:56:29;18.10;61.50
43884;DHT22;29544;52.018;5.810;2022-09-28T15:59:26;18.10;61.70
43884;DHT22;29544;52.018;5.810;2022-09-28T16:04:56;18.20;62.80
43884;DHT22;29544;52.018;5.810;2022-09-28T16:07:37;18.20;62.90
43884;DHT22;29544;52.018;5.810;2022-09-28T16:12:53;18.30;63.40
43884;DHT22;29544;52.018;5.810;2022-09-28T16:15:25;18.30;63.70
43884;DHT22;29544;52.018;5.810;2022-09-28T16:18:38;18.50;63.80
43884;DHT22;29544;52.018;5.810;2022-09-28T16:20:49;18.50;63.60
43884;DHT22;29544;52.018;5.810;2022-09-28T16:25:48;18.70;63.30
43884;DHT22;29544;52.018;5.810;2022-09-28T16:31:06;18.90;63.00
43884;DHT22;29544;52.018;5.810;2022-09-28T16:34:46;19.00;62.90
43884;DHT22;29544;52.018;5.810;2022-09-28T16:36:53;19.00;62.70
43884;DHT22;29544;52.018;5.810;2022-09-28T16:39:18;19.10;62.60
43884;DHT22;29544;52.018;5.810;2022-09-28T16:41:47;19.10;62.40
43884;DHT22;29544;52.018;5.810;2022-09-28T16:44:23;19.20;62.30
43884;DHT22;29544;52.018;5.810;2022-09-28T16:46:51;19.20;62.00
43884;DHT22;29544;52.018;5.810;2022-09-28T16:49:19;19.20;61.80
43884;DHT22;29544;52.018;5.810;2022-09-28T16:51:46;19.30;61.70
43884;DHT22;29544;52.018;5.810;2022-09-28T16:54:16;19.30;61.60
43884;DHT22;29544;52.018;5.810;2022-09-28T16:57:02;19.30;61.50
43884;DHT22;29544;52.018;5.810;2022-09-28T16:59:28;19.40;61.40
43884;DHT22;29544;52.018;5.810;2022-09-28T17:01:54;19.40;61.30
43884;DHT22;29544;52.018;5.810;2022-09-28T17:04:23;19.40;61.20
43884;DHT22;29544;52.018;5.810;2022-09-28T17:06:50;19.40;61.10
43884;DHT22;29544;52.018;5.810;2022-09-28T17:09:18;19.40;61.10
43884;DHT22;29544;52.018;5.810;2022-09-28T17:11:44;19.50;61.00
43884;DHT22;29544;52.018;5.810;2022-09-28T17:14:10;19.50;60.90
43884;DHT22;29544;52.018;5.810;2022-09-28T17:16:36;19.50;60.80
43884;DHT22;29544;52.018;5.810;2022-09-28T17:19:22;19.50;60.80
43884;DHT22;29544;52.018;5.810;2022-09-28T17:21:49;19.60;60.70
43884;DHT22;29544;52.018;5.810;2022-09-28T17:24:15;19.60;60.70
43884;DHT22;29544;52.018;5.810;2022-09-28T17:26:41;19.60;60.60
43884;DHT22;29544;52.018;5.810;2022-09-28T17:29:13;19.60;60.40
43884;DHT22;29544;52.018;5.810;2022-09-28T17:31:43;19.60;60.40
43884;DHT22;29544;52.018;5.810;2022-09-28T17:34:11;19.70;60.50
43884;DHT22;29544;52.018;5.810;2022-09-28T17:36:37;19.70;60.30
43884;DHT22;29544;52.018;5.810;2022-09-28T17:39:08;19.70;60.50
43884;DHT22;29544;52.018;5.810;2022-09-28T17:41:34;19.70;60.50
43884;DHT22;29544;52.018;5.810;2022-09-28T17:44:01;19.70;60.40
43884;DHT22;29544;52.018;5.810;2022-09-28T17:46:31;19.70;60.40
43884;DHT22;29544;52.018;5.810;2022-09-28T17:48:59;19.80;60.50
43884;DHT22;29544;52.018;5.810;2022-09-28T17:51:30;19.80;60.40
43884;DHT22;29544;52.018;5.810;2022-09-28T17:53:57;19.80;60.30
43884;DHT22;29544;52.018;5.810;2022-09-28T17:56:25;19.80;60.20
43884;DHT22;29544;52.018;5.810;2022-09-28T17:58:51;20.00;60.10
43884;DHT22;29544;52.018;5.810;2022-09-28T18:01:17;19.80;60.00
43884;DHT22;29544;52.018;5.810;2022-09-28T18:03:42;19.80;59.90
43884;DHT22;29544;52.018;5.810;2022-09-28T18:06:14;19.80;59.90
43884;DHT22;29544;52.018;5.810;2022-09-28T18:08:40;19.80;59.90
43884;DHT22;29544;52.018;5.810;2022-09-28T18:11:07;19.90;59.90
43884;DHT22;29544;52.018;5.810;2022-09-28T18:13:32;19.90;60.50
43884;DHT22;29544;52.018;5.810;2022-09-28T18:15:58;19.90;59.80
43884;DHT22;29544;52.018;5.810;2022-09-28T18:18:24;19.90;59.70
43884;DHT22;29544;52.018;5.810;2022-09-28T18:20:50;19.90;59.70
43884;DHT22;29544;52.018;5.810;2022-09-28T18:23:15;19.90;59.80
43884;DHT22;29544;52.018;5.810;2022-09-28T18:25:43;19.90;59.70
43884;DHT22;29544;52.018;5.810;2022-09-28T18:28:10;20.00;60.20
43884;DHT22;29544;52.018;5.810;2022-09-28T18:30:41;20.00;59.50
43884;DHT22;29544;52.018;5.810;2022-09-28T18:33:08;20.00;59.50
43884;DHT22;29544;52.018;5.810;2022-09-28T18:35:34;20.00;59.60
43884;DHT22;29544;52.018;5.810;2022-09-28T18:38:01;20.00;59.40
43884;DHT22;29544;52.018;5.810;2022-09-28T18:40:28;20.00;59.30
43884;DHT22;29544;52.018;5.810;2022-09-28T18:42:53;20.00;59.30
43884;DHT22;29544;52.018;5.810;2022-09-28T18:45:19;20.00;59.20
43884;DHT22;29544;52.018;5.810;2022-09-28T18:47:44;20.10;59.20
43884;DHT22;29544;52.018;5.810;2022-09-28T18:50:11;20.10;59.00
43884;DHT22;29544;52.018;5.810;2022-09-28T18:52:38;20.10;59.00
43884;DHT22;29544;52.018;5.810;2022-09-28T18:55:05;20.10;58.80